Time;durP1;ratioP1;P1;durP2;ratioP2;P2;SDS_P1;SDS_P2;PMS_P1;PMS_P2;Temp;Humidity;BMP_temperature;BMP_pressure;BME280_temperature;BME280_humidity;BME280_pressure;Samples;Min_cycle;Max_cycle;Signal;HPM_P1;HPM_P2
2021/07/07 00:01:59;;;;;;;9.60;8.70;;;;;;;20.44;97.90;99255.95;1717372;81;20986;-66
2021/07/07 00:04:25;;;;;;;16.25;8.30;;;;;;;20.46;97.72;99253.19;1717254;83;21008;-65
2021/07/07 00:06:51;;;;;;;8.90;8.00;;;;;;;20.48;97.65;99259.19;1717242;83;21489;-66
2021/07/07 00:09:19;;;;;;;8.78;8.08;;;;;;;20.51;97.69;99253.16;1717128;83;21106;-66
2021/07/07 00:11:46;;;;;;;9.25;8.40;;;;;;;20.55;97.49;99249.29;1717429;83;21502;-65
2021/07/07 00:14:13;;;;;;;9.58;8.65;;;;;;;20.61;97.16;99246.58;1717825;82;20958;-65
2021/07/07 00:16:39;;;;;;;9.38;8.58;;;;;;;20.63;96.80;99247.28;1719849;83;21006;-65
2021/07/07 00:19:06;;;;;;;10.43;8.30;;;;;;;20.64;96.49;99255.09;1719975;83;21406;-65
2021/07/07 00:21:33;;;;;;;9.65;8.60;;;;;;;20.65;96.25;99249.31;1719753;83;21072;-65
2021/07/07 00:24:00;;;;;;;10.15;8.45;;;;;;;20.66;96.01;99255.44;1719631;83;20994;-65
2021/07/07 00:26:26;;;;;;;12.28;9.28;;;;;;;20.63;95.92;99257.86;1719855;83;21002;-65
2021/07/07 00:28:53;;;;;;;9.95;9.00;;;;;;;20.60;95.83;99248.39;1719915;83;20946;-65
2021/07/07 00:31:20;;;;;;;9.93;8.60;;;;;;;20.57;95.88;99252.64;1719778;83;20998;-65
2021/07/07 00:33:46;;;;;;;8.88;8.08;;;;;;;20.55;95.83;99251.93;1719921;83;21136;-65
2021/07/07 00:36:13;;;;;;;9.55;8.68;;;;;;;20.52;95.61;99250.03;1719951;83;21379;-65
2021/07/07 00:38:39;;;;;;;9.95;9.05;;;;;;;20.48;95.83;99256.54;1720069;83;21052;-65
2021/07/07 00:41:05;;;;;;;9.88;8.88;;;;;;;20.45;96.01;99257.64;1719875;83;20998;-66
2021/07/07 00:43:32;;;;;;;9.73;8.80;;;;;;;20.44;96.14;99252.48;1719851;83;20990;-66
2021/07/07 00:46:01;;;;;;;9.50;8.60;;;;;;;20.42;96.33;99262.34;1719985;83;21921;-66
2021/07/07 00:48:28;;;;;;;9.00;8.30;;;;;;;20.39;96.58;99260.79;1719826;83;21627;-66
2021/07/07 00:50:54;;;;;;;9.80;8.95;;;;;;;20.38;96.68;99258.31;1719697;83;20958;-66
2021/07/07 00:53:21;;;;;;;10.35;9.43;;;;;;;20.37;96.91;99258.80;1693295;83;21120;-66
2021/07/07 00:55:48;;;;;;;10.20;9.23;;;;;;;20.34;96.92;99264.30;1719900;83;21567;-66
2021/07/07 00:58:14;;;;;;;10.28;9.28;;;;;;;20.30;97.11;99261.08;1719818;83;21191;-66
2021/07/07 01:00:40;;;;;;;10.35;7.95;;;;;;;20.29;97.33;99262.52;1719814;83;21046;-66
2021/07/07 01:03:07;;;;;;;9.73;8.70;;;;;;;20.30;97.45;99261.08;1719902;83;20986;-66
2021/07/07 01:05:33;;;;;;;9.88;8.88;;;;;;;20.31;97.43;99264.55;1720032;83;20962;-66
2021/07/07 01:07:59;;;;;;;9.93;8.98;;;;;;;20.31;97.46;99260.59;1719797;83;21037;-66
2021/07/07 01:10:26;;;;;;;11.83;10.15;;;;;;;20.29;97.54;99266.00;1719676;83;21876;-66
2021/07/07 01:12:53;;;;;;;9.98;8.95;;;;;;;20.28;97.55;99266.97;1719647;83;20971;-66
2021/07/07 01:15:20;;;;;;;9.33;8.43;;;;;;;20.30;97.49;99269.48;1719598;82;21046;-66
2021/07/07 01:17:48;;;;;;;10.70;8.65;;;;;;;20.29;97.35;99273.92;1719877;83;20955;-66
2021/07/07 01:20:20;;;;;;;9.50;8.60;;;;;;;20.27;97.39;99269.25;1719775;83;20994;-66
2021/07/07 01:22:46;;;;;;;11.13;10.13;;;;;;;20.27;97.46;99267.93;1720028;83;21134;-66
2021/07/07 01:25:15;;;;;;;10.90;9.38;;;;;;;20.29;97.46;99273.92;1719684;83;20998;-65
2021/07/07 01:27:42;;;;;;;10.50;9.15;;;;;;;20.30;97.39;99282.20;1720068;83;20975;-66
2021/07/07 01:30:13;;;;;;;9.25;8.18;;;;;;;20.32;97.22;99283.40;1719665;83;21037;-66
2021/07/07 01:32:39;;;;;;;11.05;8.65;;;;;;;20.35;97.00;99275.70;1720086;83;21013;-66
2021/07/07 01:35:08;;;;;;;10.23;8.50;;;;;;;20.35;96.94;99279.66;1719787;83;21191;-66
2021/07/07 01:37:35;;;;;;;11.50;9.53;;;;;;;20.35;96.86;99279.18;1719915;83;20951;-66
2021/07/07 01:40:04;;;;;;;10.60;9.60;;;;;;;20.35;96.87;99288.42;1719788;83;20887;-66
2021/07/07 01:42:31;;;;;;;9.60;8.20;;;;;;;20.33;96.97;99286.39;1719997;83;21050;-66
2021/07/07 01:44:58;;;;;;;9.73;8.75;;;;;;;20.33;97.02;99292.16;1719714;83;20994;-66
2021/07/07 01:47:24;;;;;;;13.50;9.25;;;;;;;20.33;96.97;99294.80;1719643;83;23277;-66
2021/07/07 01:49:51;;;;;;;10.55;8.90;;;;;;;20.33;97.19;99299.59;1719616;83;21002;-66
2021/07/07 01:52:17;;;;;;;11.33;9.48;;;;;;;20.37;97.13;99299.73;1719756;83;20962;-66
2021/07/07 01:54:44;;;;;;;12.05;9.50;;;;;;;20.37;97.12;99298.41;1719969;83;20950;-66
2021/07/07 01:57:10;;;;;;;10.25;9.10;;;;;;;20.40;97.15;99305.21;1719788;83;21006;-66
2021/07/07 01:59:38;;;;;;;11.97;9.23;;;;;;;20.41;96.97;99306.41;1719858;83;22000;-66
2021/07/07 02:02:04;;;;;;;9.78;8.88;;;;;;;20.43;96.84;99303.64;1719691;83;21018;-66
2021/07/07 02:04:31;;;;;;;15.45;10.48;;;;;;;20.45;96.77;99309.63;1719718;83;20998;-66
2021/07/07 02:06:57;;;;;;;12.53;9.43;;;;;;;20.46;96.70;99307.34;1719881;82;21442;-66
2021/07/07 02:09:25;;;;;;;11.83;10.68;;;;;;;20.48;96.67;99310.70;1719662;83;20977;-66
2021/07/07 02:11:53;;;;;;;11.73;9.80;;;;;;;20.48;96.62;99304.09;1719759;83;20927;-66
2021/07/07 02:14:21;;;;;;;11.20;9.55;;;;;;;20.49;96.56;99312.38;1720651;82;20982;-65
2021/07/07 02:16:48;;;;;;;10.38;9.33;;;;;;;20.50;96.54;99304.80;1733107;82;21097;-66
2021/07/07 02:19:14;;;;;;;10.68;9.55;;;;;;;20.50;96.45;99304.32;1733008;82;20963;-66
2021/07/07 02:21:41;;;;;;;15.00;10.15;;;;;;;20.49;96.48;99305.77;1732998;82;20987;-66
2021/07/07 02:24:07;;;;;;;12.35;10.95;;;;;;;20.50;96.56;99308.77;1733007;82;21745;-66
2021/07/07 02:26:34;;;;;;;10.20;8.98;;;;;;;20.50;96.54;99312.25;1732930;82;20948;-66
2021/07/07 02:29:03;;;;;;;11.90;9.08;;;;;;;20.51;96.48;99306.48;1732962;82;21034;-65
2021/07/07 02:31:30;;;;;;;11.80;9.48;;;;;;;20.50;96.38;99311.41;1732973;82;21042;-66
2021/07/07 02:33:57;;;;;;;10.85;8.35;;;;;;;20.50;96.52;99315.37;1732900;82;20963;-66
2021/07/07 02:36:24;;;;;;;12.18;10.13;;;;;;;20.49;96.45;99323.78;1732987;82;21131;-65
2021/07/07 02:38:50;;;;;;;13.25;11.00;;;;;;;20.49;96.66;99319.81;1732958;82;21455;-66
2021/07/07 02:41:18;;;;;;;16.67;10.10;;;;;;;20.53;96.69;99321.24;1732933;82;21099;-65
2021/07/07 02:43:44;;;;;;;10.65;9.63;;;;;;;20.54;96.44;99317.63;1732989;82;20992;-65
2021/07/07 02:46:11;;;;;;;12.00;10.45;;;;;;;20.54;96.38;99314.98;1733095;82;21058;-65
2021/07/07 02:48:39;;;;;;;10.00;8.78;;;;;;;20.55;96.34;99326.40;1733044;82;21087;-65
2021/07/07 02:51:05;;;;;;;11.20;9.38;;;;;;;20.57;96.48;99331.91;1732799;82;20995;-66
2021/07/07 02:53:33;;;;;;;11.63;9.85;;;;;;;20.58;96.54;99329.59;1733146;82;21409;-66
2021/07/07 02:56:00;;;;;;;12.25;9.40;;;;;;;20.62;96.40;99328.85;1732865;82;42801;-66
2021/07/07 02:58:27;;;;;;;14.55;9.78;;;;;;;20.73;96.68;99331.44;1733062;82;20952;-65
2021/07/07 03:00:54;;;;;;;14.10;8.88;;;;;;;20.96;96.23;99332.11;1732865;82;21153;-65
2021/07/07 03:03:24;;;;;;;10.03;9.00;;;;;;;21.19;95.20;99322.14;1732871;82;21058;-65
2021/07/07 03:05:58;;;;;;;10.53;9.53;;;;;;;21.49;94.29;99327.91;1732516;82;21007;-66
2021/07/07 03:08:29;;;;;;;10.40;9.40;;;;;;;21.81;92.68;99329.83;1732937;82;21000;-66
2021/07/07 03:10:56;;;;;;;13.18;9.18;;;;;;;22.15;91.09;99332.12;1732998;82;20999;-65
2021/07/07 03:13:24;;;;;;;9.10;8.18;;;;;;;22.53;89.39;99329.91;1732860;82;21957;-66
2021/07/07 03:15:51;;;;;;;9.58;8.63;;;;;;;22.90;87.44;99332.13;1732939;82;21043;-66
2021/07/07 03:18:18;;;;;;;14.28;9.05;;;;;;;23.26;84.91;99331.76;1732839;82;20995;-66
2021/07/07 03:20:48;;;;;;;10.63;9.35;;;;;;;23.54;83.23;99328.64;1732943;82;20966;-66
2021/07/07 03:23:16;;;;;;;10.32;8.73;;;;;;;23.77;82.04;99330.87;1733127;82;21011;-66
2021/07/07 03:25:43;;;;;;;10.48;9.30;;;;;;;23.98;80.86;99326.09;1732990;82;21743;-66
2021/07/07 03:28:09;;;;;;;13.10;8.75;;;;;;;24.21;79.65;99328.59;1733143;82;21046;-66
2021/07/07 03:30:36;;;;;;;14.03;9.80;;;;;;;24.54;78.02;99328.41;1732919;82;20991;-66
2021/07/07 03:33:02;;;;;;;11.75;9.05;;;;;;;24.80;76.18;99328.38;1732832;82;21069;-66
2021/07/07 03:35:29;;;;;;;10.53;9.48;;;;;;;24.99;74.90;99324.69;1733056;82;21513;-66
2021/07/07 03:37:55;;;;;;;12.28;9.08;;;;;;;25.17;74.19;99329.95;1733023;82;21073;-66
2021/07/07 03:40:22;;;;;;;10.28;8.90;;;;;;;25.25;72.98;99332.63;1732936;82;21054;-66
2021/07/07 03:42:49;;;;;;;15.03;9.88;;;;;;;25.15;72.41;99338.59;1733171;82;21082;-66
2021/07/07 03:45:17;;;;;;;11.73;10.32;;;;;;;24.92;72.82;99344.92;1732934;82;20967;-66
2021/07/07 03:47:44;;;;;;;12.20;10.90;;;;;;;24.70;73.70;99352.94;1733313;82;20999;-66
2021/07/07 03:50:11;;;;;;;14.78;10.15;;;;;;;24.56;73.90;99350.35;1732944;81;21195;-66
2021/07/07 03:52:38;;;;;;;10.85;9.75;;;;;;;24.48;74.48;99353.44;1733006;82;20944;-66
2021/07/07 03:55:09;;;;;;;10.90;9.90;;;;;;;24.62;74.57;99349.71;1708420;82;20956;-66
2021/07/07 03:57:36;;;;;;;10.55;9.40;;;;;;;24.90;73.96;99345.57;1733196;82;21448;-66
2021/07/07 04:00:05;;;;;;;11.28;10.18;;;;;;;25.20;73.06;99349.56;1733103;82;21046;-66
2021/07/07 04:02:33;;;;;;;11.15;9.98;;;;;;;25.45;72.11;99346.02;1732259;82;21726;-66
2021/07/07 04:05:02;;;;;;;13.68;10.05;;;;;;;25.88;70.55;99345.49;1732989;82;21115;-66
2021/07/07 04:07:29;;;;;;;12.75;10.72;;;;;;;26.29;69.04;99347.22;1733272;82;21018;-66
2021/07/07 04:09:55;;;;;;;11.28;10.15;;;;;;;26.65;67.71;99349.52;1733107;82;20964;-64
2021/07/07 04:12:23;;;;;;;10.32;9.50;;;;;;;27.02;66.45;99345.80;1733308;82;21460;-65
2021/07/07 04:14:49;;;;;;;11.50;10.43;;;;;;;27.38;65.03;99354.16;1733035;82;21018;-67
2021/07/07 04:17:16;;;;;;;11.57;10.48;;;;;;;27.65;63.57;99350.73;1732998;82;20963;-66
2021/07/07 04:19:42;;;;;;;11.57;10.48;;;;;;;27.62;62.83;99345.73;1733157;82;20983;-66
2021/07/07 04:22:09;;;;;;;13.43;10.48;;;;;;;27.51;63.20;99350.95;1733022;82;21026;-66
2021/07/07 04:24:36;;;;;;;11.85;10.85;;;;;;;27.62;62.82;99350.58;1733287;82;21412;-66
2021/07/07 04:27:03;;;;;;;11.78;10.68;;;;;;;27.77;62.19;99352.85;1733288;82;21092;-66
2021/07/07 04:29:31;;;;;;;11.75;10.63;;;;;;;27.85;61.63;99363.98;1733007;82;21011;-66
2021/07/07 04:31:57;;;;;;;11.85;10.75;;;;;;;27.74;61.31;99356.38;1733234;82;20964;-66
2021/07/07 04:34:25;;;;;;;12.20;10.95;;;;;;;27.45;61.43;99360.98;1733064;82;21010;-66
2021/07/07 04:36:52;;;;;;;11.68;10.58;;;;;;;27.03;62.48;99353.30;1733067;82;21035;-66
2021/07/07 04:39:18;;;;;;;12.20;11.10;;;;;;;26.70;63.71;99358.70;1732959;82;21146;-67
2021/07/07 04:41:45;;;;;;;11.25;10.15;;;;;;;26.65;64.48;99364.20;1733011;82;20947;-67
2021/07/07 04:44:12;;;;;;;11.65;10.32;;;;;;;26.74;63.86;99369.37;1733000;82;20995;-67
2021/07/07 04:46:38;;;;;;;15.18;10.63;;;;;;;26.59;64.32;99369.70;1733058;82;21335;-67
2021/07/07 04:49:06;;;;;;;11.25;10.20;;;;;;;26.53;64.50;99370.89;1733036;82;21459;-67
2021/07/07 04:51:33;;;;;;;11.08;9.95;;;;;;;26.32;64.84;99368.23;1733161;82;21881;-66
2021/07/07 04:53:59;;;;;;;11.30;10.13;;;;;;;26.12;65.59;99376.67;1732879;82;21073;-66
2021/07/07 04:56:25;;;;;;;12.33;11.22;;;;;;;25.92;65.92;99374.81;1732917;82;20999;-66
2021/07/07 04:58:52;;;;;;;11.35;10.28;;;;;;;25.81;66.61;99378.61;1732950;82;21953;-67
2021/07/07 05:01:18;;;;;;;11.28;10.23;;;;;;;25.78;66.87;99378.92;1732897;82;21023;-66
2021/07/07 05:03:45;;;;;;;10.08;9.18;;;;;;;25.89;66.88;99377.30;1732991;82;21289;-67
2021/07/07 05:06:12;;;;;;;10.60;9.73;;;;;;;25.98;66.87;99378.97;1732905;82;20923;-67
2021/07/07 05:08:39;;;;;;;10.82;9.93;;;;;;;26.00;66.36;99382.31;1733127;82;21527;-66
2021/07/07 05:11:05;;;;;;;11.83;10.60;;;;;;;25.94;66.20;99378.16;1732908;82;21019;-66
2021/07/07 05:13:33;;;;;;;10.20;9.30;;;;;;;25.96;66.02;99380.99;1733067;82;20995;-66
2021/07/07 05:16:00;;;;;;;10.85;9.85;;;;;;;26.13;65.56;99386.34;1732734;82;21091;-66
2021/07/07 05:18:27;;;;;;;10.63;9.73;;;;;;;26.48;64.67;99392.72;1733086;82;20939;-66
2021/07/07 05:20:54;;;;;;;10.13;8.80;;;;;;;26.91;63.23;99392.02;1732878;82;21115;-66
2021/07/07 05:23:20;;;;;;;9.98;9.00;;;;;;;27.35;61.99;99393.77;1732934;82;21007;-66
2021/07/07 05:25:47;;;;;;;9.30;8.40;;;;;;;27.72;59.20;99403.31;1732951;82;20951;-66
2021/07/07 05:28:13;;;;;;;9.53;8.73;;;;;;;27.91;56.21;99395.36;1732840;81;21783;-67
2021/07/07 05:30:40;;;;;;;11.08;10.08;;;;;;;27.89;56.09;99397.38;1732879;82;21007;-68
2021/07/07 05:33:08;;;;;;;10.45;9.45;;;;;;;27.95;56.42;99406.03;1732886;82;21294;-67
2021/07/07 05:35:36;;;;;;;8.75;7.85;;;;;;;28.12;56.19;99406.25;1732929;82;21003;-67
2021/07/07 05:38:04;;;;;;;9.10;7.35;;;;;;;28.27;53.56;99411.69;1733150;82;21053;-67
2021/07/07 05:40:31;;;;;;;8.83;7.25;;;;;;;28.34;51.20;99407.80;1733093;82;21632;-67
2021/07/07 05:42:58;;;;;;;9.18;6.20;;;;;;;28.36;50.87;99408.46;1732814;82;21109;-67
2021/07/07 05:45:26;;;;;;;7.97;6.35;;;;;;;28.41;49.55;99415.42;1732854;82;20991;-67
2021/07/07 05:47:54;;;;;;;6.53;5.92;;;;;;;28.42;50.46;99410.40;1732942;82;21038;-67
2021/07/07 05:50:21;;;;;;;7.03;6.37;;;;;;;28.54;50.09;99418.34;1732897;82;21599;-67
2021/07/07 05:52:47;;;;;;;12.00;7.17;;;;;;;28.76;50.86;99416.66;1733042;82;21072;-67
2021/07/07 05:55:16;;;;;;;7.72;6.85;;;;;;;29.00;50.48;99416.93;1733037;82;21392;-70
2021/07/07 05:57:42;;;;;;;7.10;5.87;;;;;;;29.13;48.74;99421.17;1732869;82;20959;-69
2021/07/07 06:00:12;;;;;;;8.03;5.60;;;;;;;29.09;47.03;99423.88;1732980;82;21022;-67
2021/07/07 06:02:40;;;;;;;9.25;6.35;;;;;;;28.91;47.47;99418.88;1733074;82;20967;-68
2021/07/07 06:05:08;;;;;;;6.95;6.28;;;;;;;28.75;47.44;99425.70;1732873;82;21170;-68
2021/07/07 06:07:35;;;;;;;8.75;6.72;;;;;;;28.55;47.78;99421.34;1732734;82;20995;-68
2021/07/07 06:10:04;;;;;;;7.28;6.70;;;;;;;28.32;48.08;99420.52;1732843;82;21052;-68
2021/07/07 06:12:30;;;;;;;6.87;6.05;;;;;;;28.06;49.19;99422.99;1732935;82;21503;-68
2021/07/07 06:14:57;;;;;;;6.85;6.25;;;;;;;27.79;49.51;99424.30;1733157;82;21007;-68
2021/07/07 06:17:23;;;;;;;7.47;6.50;;;;;;;27.62;50.68;99425.39;1732727;82;21143;-67
2021/07/07 06:19:50;;;;;;;6.08;5.58;;;;;;;27.57;50.98;99431.78;1732841;82;21090;-68
2021/07/07 06:22:16;;;;;;;8.00;6.62;;;;;;;27.51;49.89;99428.92;1732870;82;20951;-68
2021/07/07 06:24:43;;;;;;;8.35;6.28;;;;;;;27.44;51.53;99434.11;1732792;82;20979;-68
2021/07/07 06:27:09;;;;;;;7.00;6.40;;;;;;;27.38;52.34;99436.13;1732844;82;21050;-68
2021/07/07 06:29:35;;;;;;;8.00;4.60;;;;;;;27.32;52.96;99436.84;1732905;82;21062;-67
2021/07/07 06:32:03;;;;;;;3.12;2.83;;;;;;;27.29;50.87;99434.50;1732782;82;21498;-68
2021/07/07 06:34:30;;;;;;;3.10;2.80;;;;;;;27.12;46.89;99435.55;1733035;82;21011;-67
2021/07/07 06:36:57;;;;;;;2.92;2.72;;;;;;;26.87;47.45;99448.06;1732880;82;21072;-67
2021/07/07 06:39:24;;;;;;;2.92;2.72;;;;;;;26.68;48.13;99446.56;1732960;82;20971;-68
2021/07/07 06:41:50;;;;;;;3.02;2.75;;;;;;;26.62;49.33;99447.22;1732837;82;23291;-68
2021/07/07 06:44:17;;;;;;;7.15;3.40;;;;;;;26.60;50.13;99440.72;1732997;82;21422;-68
2021/07/07 06:46:43;;;;;;;5.30;2.98;;;;;;;26.60;49.71;99442.55;1732919;82;20991;-67
2021/07/07 06:49:09;;;;;;;3.15;2.90;;;;;;;26.60;49.74;99450.05;1732798;82;21034;-67
2021/07/07 06:51:36;;;;;;;2.55;2.35;;;;;;;26.59;49.24;99449.72;1732902;82;21121;-67
2021/07/07 06:54:02;;;;;;;4.92;2.70;;;;;;;26.51;48.26;99449.73;1732976;82;21106;-68
2021/07/07 06:56:28;;;;;;;5.35;2.50;;;;;;;26.32;48.52;99449.55;1733236;82;21411;-67
2021/07/07 06:58:55;;;;;;;4.12;2.62;;;;;;;26.15;48.32;99446.99;1732803;82;20955;-67
2021/07/07 07:01:22;;;;;;;5.65;3.27;;;;;;;25.96;48.89;99456.95;1732796;82;21031;-67
2021/07/07 07:03:48;;;;;;;2.72;2.37;;;;;;;25.81;49.88;99462.53;1733102;82;21395;-68
2021/07/07 07:06:15;;;;;;;5.17;2.58;;;;;;;25.66;48.93;99456.15;1732905;82;21621;-67
2021/07/07 07:08:42;;;;;;;3.77;2.40;;;;;;;25.53;49.10;99463.23;1732826;82;21084;-67
2021/07/07 07:11:12;;;;;;;3.52;2.27;;;;;;;25.47;49.63;99463.86;1733183;82;20966;-67
2021/07/07 07:13:38;;;;;;;3.58;2.50;;;;;;;25.50;49.57;99461.38;1732780;82;20976;-68
2021/07/07 07:16:05;;;;;;;5.62;2.80;;;;;;;25.47;49.23;99469.18;1731406;82;20951;-68
2021/07/07 07:18:31;;;;;;;3.90;3.20;;;;;;;25.41;50.53;99464.48;1722907;82;21192;-68
2021/07/07 07:20:58;;;;;;;4.45;3.20;;;;;;;25.38;49.83;99471.45;1746834;82;20955;-68
2021/07/07 07:23:24;;;;;;;4.15;3.80;;;;;;;25.34;50.60;99471.45;1746632;80;20962;-67
2021/07/07 07:25:50;;;;;;;5.58;3.70;;;;;;;25.32;50.78;99484.91;1746405;82;21482;-66
2021/07/07 07:28:17;;;;;;;3.30;3.00;;;;;;;25.29;51.48;99473.24;1746868;82;21002;-67
2021/07/07 07:30:45;;;;;;;5.05;3.77;;;;;;;25.30;50.54;99482.06;1746797;82;21887;-67
2021/07/07 07:33:12;;;;;;;3.98;3.65;;;;;;;25.30;51.75;99480.73;1746633;82;21046;-67
2021/07/07 07:35:38;;;;;;;3.65;2.95;;;;;;;25.34;52.23;99477.61;1747010;80;20962;-68
2021/07/07 07:38:09;;;;;;;4.80;3.15;;;;;;;25.36;51.23;99486.27;1746798;82;21002;-67
2021/07/07 07:40:39;;;;;;;4.40;2.72;;;;;;;25.35;49.86;99487.77;1746441;82;21046;-67
2021/07/07 07:43:06;;;;;;;3.17;2.52;;;;;;;25.31;49.24;99493.89;1745181;82;21327;-68
2021/07/07 07:45:33;;;;;;;3.15;2.35;;;;;;;25.30;48.15;99476.73;1746933;82;21517;-68
2021/07/07 07:48:00;;;;;;;3.20;2.30;;;;;;;25.26;47.77;99476.71;1746705;82;21593;-68
2021/07/07 07:50:27;;;;;;;3.72;2.47;;;;;;;25.24;48.39;99478.69;1746915;82;20983;-68
2021/07/07 07:52:53;;;;;;;2.65;2.08;;;;;;;25.28;48.82;99470.73;1746760;80;20959;-68
2021/07/07 07:55:20;;;;;;;3.02;1.80;;;;;;;25.35;47.53;99467.30;1747001;82;21930;-67
2021/07/07 07:57:48;;;;;;;2.60;2.00;;;;;;;25.37;46.91;99495.09;1746765;82;20978;-67
2021/07/07 08:00:20;;;;;;;2.30;2.10;;;;;;;25.37;47.14;99478.62;1725976;82;20991;-67
2021/07/07 08:02:48;;;;;;;3.65;2.40;;;;;;;25.42;47.75;99480.80;1746335;82;20958;-68
2021/07/07 08:05:16;;;;;;;2.90;2.08;;;;;;;25.55;48.46;99481.22;1746591;82;20959;-66
2021/07/07 08:07:42;;;;;;;3.02;1.75;;;;;;;25.71;48.55;99479.98;1746874;82;21108;-67
2021/07/07 08:10:12;;;;;;;2.47;1.90;;;;;;;25.85;44.82;99488.36;1746805;82;21022;-68
2021/07/07 08:12:39;;;;;;;2.20;1.80;;;;;;;25.89;44.67;99485.72;1746711;82;21030;-67
2021/07/07 08:15:08;;;;;;;6.70;2.22;;;;;;;25.92;45.74;99494.73;1746022;82;21002;-67
2021/07/07 08:17:34;;;;;;;2.60;1.87;;;;;;;25.97;44.22;99502.59;1757386;80;20960;-68
2021/07/07 08:20:07;;;;;;;7.47;2.10;;;;;;;25.96;42.51;99487.59;1765228;81;21118;-67
2021/07/07 08:22:33;;;;;;;5.67;2.20;;;;;;;25.94;42.97;99490.91;1765235;81;20991;-67
2021/07/07 08:24:59;;;;;;;4.28;2.10;;;;;;;25.96;43.63;99500.08;1765682;80;21014;-67
2021/07/07 08:27:28;;;;;;;4.60;2.20;;;;;;;26.00;43.93;99497.41;1765332;81;21677;-65
2021/07/07 08:29:56;;;;;;;2.87;2.10;;;;;;;26.05;44.11;99512.42;1763978;81;21502;-66
2021/07/07 08:32:23;;;;;;;6.47;2.37;;;;;;;26.10;43.78;99499.45;1765323;81;21169;-66
2021/07/07 08:34:49;;;;;;;2.27;1.87;;;;;;;26.10;43.90;99506.12;1765631;81;21030;-67
2021/07/07 08:37:16;;;;;;;9.13;2.80;;;;;;;26.10;43.83;99507.45;1765369;81;20947;-64
2021/07/07 08:39:43;;;;;;;3.40;2.10;;;;;;;26.09;44.04;99519.94;1765421;81;20987;-64
2021/07/07 08:42:09;;;;;;;6.42;2.05;;;;;;;26.06;44.19;99508.77;1765360;81;21567;-65
2021/07/07 08:44:38;;;;;;;2.65;2.20;;;;;;;26.03;44.55;99510.41;1765256;81;21000;-65
2021/07/07 08:47:05;;;;;;;3.92;2.10;;;;;;;26.04;45.04;99511.58;1765375;81;20936;-66
2021/07/07 08:49:31;;;;;;;3.00;2.10;;;;;;;26.05;45.53;99504.42;1734025;81;21521;-67
2021/07/07 08:51:58;;;;;;;3.30;2.50;;;;;;;26.08;46.30;99510.77;1761425;81;21427;-68
2021/07/07 08:54:25;;;;;;;3.72;1.90;;;;;;;26.16;45.73;99511.30;1764741;81;21415;-65
2021/07/07 08:56:52;;;;;;;4.47;2.15;;;;;;;26.23;45.44;99520.30;1764018;81;21123;-67
2021/07/07 08:59:19;;;;;;;2.42;2.20;;;;;;;26.25;44.52;99531.64;1764522;81;21450;-67
2021/07/07 09:02:07;;;;;;;2.58;1.57;;;;;;;26.28;44.34;99520.66;1754282;81;21106;-66
2021/07/07 09:04:44;;;;;;;2.12;1.92;;;;;;;26.27;44.51;99523.83;1733785;82;21029;-66
2021/07/07 09:07:17;;;;;;;2.83;2.00;;;;;;;26.27;45.19;99522.98;1744744;81;21022;-67
2021/07/07 09:09:47;;;;;;;5.28;2.02;;;;;;;26.29;45.31;99528.53;1765675;81;21345;-66
2021/07/07 09:12:21;;;;;;;3.42;2.12;;;;;;;26.32;44.74;99540.70;1765215;81;20979;-68
2021/07/07 09:14:52;;;;;;;4.25;1.82;;;;;;;26.33;44.22;99531.22;1765358;81;21011;-67
2021/07/07 09:17:20;;;;;;;3.55;1.90;;;;;;;26.34;44.08;99533.39;1756016;81;20990;-66
2021/07/07 09:19:48;;;;;;;2.45;2.10;;;;;;;26.36;44.58;99528.23;1746535;82;20942;-67
2021/07/07 09:22:15;;;;;;;4.87;1.92;;;;;;;26.40;44.50;99526.88;1746771;82;23294;-66
2021/07/07 09:24:44;;;;;;;5.95;2.42;;;;;;;26.45;43.35;99538.40;1748801;82;20971;-67
2021/07/07 09:27:13;;;;;;;2.00;1.77;;;;;;;26.47;44.54;99536.91;1746931;82;21046;-66
2021/07/07 09:29:52;;;;;;;2.33;2.12;;;;;;;26.52;45.18;99527.42;1746997;82;21002;-66
2021/07/07 09:32:29;;;;;;;10.98;2.05;;;;;;;26.58;44.44;99529.94;1725928;82;21411;-67
2021/07/07 09:34:59;;;;;;;5.50;2.60;;;;;;;26.59;44.08;99575.59;1746814;82;22359;-66
2021/07/07 09:37:38;;;;;;;6.95;1.95;;;;;;;26.52;45.60;99553.27;1747156;82;21454;-67
2021/07/07 09:40:05;;;;;;;2.20;2.10;;;;;;;26.41;44.72;99539.72;1746817;82;21022;-66
2021/07/07 09:42:37;;;;;;;3.15;2.00;;;;;;;26.34;45.78;99543.55;1746676;82;20994;-66
2021/07/07 09:45:09;;;;;;;2.05;1.72;;;;;;;26.36;45.52;99552.73;1746236;82;21042;-66
2021/07/07 09:47:36;;;;;;;3.02;2.17;;;;;;;26.36;45.52;99552.73;1747133;82;21087;-66
2021/07/07 09:50:03;;;;;;;1.90;1.80;;;;;;;26.37;45.25;99543.23;1746766;82;20998;-67
2021/07/07 09:52:31;;;;;;;2.95;2.00;;;;;;;26.41;46.30;99553.05;1746771;82;21167;-67
2021/07/07 09:55:01;;;;;;;3.08;1.40;;;;;;;26.46;43.96;99544.07;1746238;82;21093;-67
2021/07/07 09:57:27;;;;;;;3.92;1.52;;;;;;;26.46;42.68;99560.57;1745870;82;21529;-67
2021/07/07 09:59:54;;;;;;;1.40;1.30;;;;;;;26.48;42.82;99558.58;1746437;82;21216;-66
2021/07/07 10:02:20;;;;;;;5.22;1.50;;;;;;;26.48;42.08;99565.25;1745739;82;20990;-66
2021/07/07 10:04:48;;;;;;;1.50;1.40;;;;;;;26.50;43.17;99566.76;1746118;82;21061;-66
2021/07/07 10:07:14;;;;;;;3.83;1.50;;;;;;;26.55;43.93;99564.94;1746321;82;20955;-66
2021/07/07 10:09:46;;;;;;;1.30;1.25;;;;;;;26.62;43.38;99566.77;1746901;82;20938;-66
2021/07/07 10:12:13;;;;;;;1.40;1.30;;;;;;;26.72;42.98;99564.81;1747297;82;21919;-68
2021/07/07 10:14:41;;;;;;;3.08;1.55;;;;;;;26.82;41.74;99580.65;1746799;82;20977;-66
2021/07/07 10:17:09;;;;;;;1.52;1.27;;;;;;;26.84;41.96;99577.31;1747102;80;21054;-66
2021/07/07 10:19:37;;;;;;;1.50;1.40;;;;;;;26.85;41.65;99572.81;1698506;82;21443;-67
2021/07/07 10:22:04;;;;;;;1.30;1.20;;;;;;;26.84;42.78;99571.98;1725350;82;21034;-67
2021/07/07 10:24:32;;;;;;;1.95;1.32;;;;;;;26.84;43.79;99581.32;1719601;83;22328;-67
2021/07/07 10:27:01;;;;;;;1.72;1.42;;;;;;;26.92;44.45;99577.84;1719584;83;21029;-67
2021/07/07 10:29:27;;;;;;;1.57;1.27;;;;;;;27.00;43.99;99593.38;1719783;83;21434;-66
2021/07/07 10:31:58;;;;;;;1.52;1.25;;;;;;;27.04;44.40;99583.20;1693243;83;20998;-66
2021/07/07 10:34:28;;;;;;;1.65;1.52;;;;;;;27.08;44.63;99589.39;1718697;83;20963;-67
2021/07/07 10:36:57;;;;;;;4.37;1.87;;;;;;;27.13;46.03;99587.56;1719565;83;21422;-67
2021/07/07 10:39:24;;;;;;;1.70;1.60;;;;;;;27.22;46.38;99583.04;1719862;83;21399;-67
2021/07/07 10:41:56;;;;;;;1.80;1.70;;;;;;;27.37;46.38;99577.38;1719628;83;21010;-67
2021/07/07 10:44:30;;;;;;;4.65;1.80;;;;;;;27.53;46.35;99591.22;1719614;83;21031;-67
2021/07/07 10:47:05;;;;;;;2.92;2.00;;;;;;;27.64;46.83;99584.20;1719623;83;21443;-67
2021/07/07 10:49:51;;;;;;;4.20;2.40;;;;;;;27.82;46.96;99589.34;1719738;83;21035;-67
2021/07/07 10:52:40;;;;;;;3.95;2.20;;;;;;;28.02;47.00;99582.09;1719459;83;20998;-65
2021/07/07 10:55:09;;;;;;;2.52;2.25;;;;;;;28.25;47.03;99582.70;1719562;83;20967;-66
2021/07/07 10:57:36;;;;;;;3.30;2.08;;;;;;;28.49;46.64;99591.13;1719591;83;21442;-66
2021/07/07 11:00:29;;;;;;;2.37;2.17;;;;;;;28.57;46.84;99591.92;1719570;83;21530;-67
2021/07/07 11:03:14;;;;;;;4.70;2.37;;;;;;;28.64;46.57;99590.19;1697716;83;21904;-65
2021/07/07 11:05:41;;;;;;;3.75;2.02;;;;;;;28.69;46.59;99579.80;1719666;83;21530;-66
2021/07/07 11:08:07;;;;;;;2.10;2.00;;;;;;;28.82;46.47;99586.42;1719665;83;20998;-67
2021/07/07 11:10:40;;;;;;;2.75;2.10;;;;;;;28.79;45.14;99579.55;1656964;83;21107;-67
2021/07/07 11:13:12;;;;;;;2.92;2.40;;;;;;;28.66;45.82;99581.98;1715624;83;20990;-66
2021/07/07 11:15:39;;;;;;;2.40;2.20;;;;;;;28.55;47.15;99578.39;1719597;83;21733;-66
2021/07/07 11:18:11;;;;;;;2.30;2.10;;;;;;;28.63;47.51;99585.02;1718357;82;21012;-66
2021/07/07 11:20:41;;;;;;;6.08;1.77;;;;;;;28.75;46.08;99580.94;1719315;83;21006;-67
2021/07/07 11:23:11;;;;;;;2.40;2.20;;;;;;;28.90;45.62;99574.34;1717300;82;20962;-67
2021/07/07 11:25:39;;;;;;;1.90;1.80;;;;;;;29.13;45.44;99574.66;1717092;83;20970;-66
2021/07/07 11:28:11;;;;;;;2.45;1.60;;;;;;;29.41;44.57;99574.92;1717264;83;21153;-66
2021/07/07 11:30:38;;;;;;;1.60;1.50;;;;;;;29.58;44.18;99571.58;1717181;83;20954;-65
2021/07/07 11:33:05;;;;;;;2.10;1.87;;;;;;;29.61;44.45;99577.08;1717334;83;21104;-66